HEBL METAR and TAF | Updated Today

HEBL METAR

Abu Simbel Airport

Observation time: 36 min. ago

HEBL 080700Z 36013KT 8000 NSC 16/M01 Q1022 NOSIG

Need help? Read our tutorial on how to read METARs or read the parsed version below.

Abu Simbel Airport (HEBL) METAR

  • Weather conditions on Wed, 08 Dec 2021 07:00:00 +0000 (36 min. ago):
  • Present conditions: Dry
  • Clouds: No significant clouds are observed
  • Visibility: 8000 meters
  • Wind: 360 degrees at 13 knots
  • Temperature: 16 celsius
  • Dew point: -1 celsius
  • Pressure: 1022 millibars
  • Remarks: None


Useful to know...

HEBL TAF

Abu Simbel Airport

TAF HEBL 080500Z 0806/0912 36015KT 7000 NSC
Observation time: 2:36 hr. ago
Need help? Read our tutorial on how to read TAFs or read the parsed version below.

Parsed version of TAF for Abu Simbel Airport (HEBL)

  • From 08 December at 06:00 UTC, to day 09 of the month at 12:00 UTC
  • Clouds: No significant clouds are observed
  • Visibility: 7000 meters
  • Wind: 360 degrees at 15

Airports near HEBL

HSSW Weather
Region: Wadi Halfa

Wadi Halfa Airport

Not found in our database